sensor_id;sensor_type;location;lat;lon;timestamp;P1;durP1;ratioP1;P2;durP2;ratioP2
40176;SDS011;31511;46.176;9.874;2022-12-08T00:02:09;18.23;;;9.50;;
40176;SDS011;31511;46.176;9.874;2022-12-08T00:04:35;16.77;;;9.37;;
40176;SDS011;31511;46.176;9.874;2022-12-08T00:07:22;13.10;;;7.27;;
40176;SDS011;31511;46.176;9.874;2022-12-08T00:10:07;14.80;;;7.80;;
40176;SDS011;31511;46.176;9.874;2022-12-08T00:12:34;9.97;;;6.73;;
40176;SDS011;31511;46.176;9.874;2022-12-08T00:15:00;9.00;;;5.17;;
40176;SDS011;31511;46.176;9.874;2022-12-08T00:17:27;10.03;;;6.87;;
40176;SDS011;31511;46.176;9.874;2022-12-08T00:19:55;15.37;;;6.53;;
40176;SDS011;31511;46.176;9.874;2022-12-08T00:22:22;10.70;;;6.40;;
40176;SDS011;31511;46.176;9.874;2022-12-08T00:24:50;11.83;;;7.47;;
40176;SDS011;31511;46.176;9.874;2022-12-08T00:27:17;9.03;;;5.50;;
40176;SDS011;31511;46.176;9.874;2022-12-08T00:29:43;9.20;;;6.13;;
40176;SDS011;31511;46.176;9.874;2022-12-08T00:32:09;10.80;;;6.37;;
40176;SDS011;31511;46.176;9.874;2022-12-08T00:34:36;9.40;;;6.37;;
40176;SDS011;31511;46.176;9.874;2022-12-08T00:37:02;11.90;;;7.07;;
40176;SDS011;31511;46.176;9.874;2022-12-08T00:39:30;10.27;;;6.60;;
40176;SDS011;31511;46.176;9.874;2022-12-08T00:41:56;10.80;;;7.20;;
40176;SDS011;31511;46.176;9.874;2022-12-08T00:44:39;8.63;;;5.80;;
40176;SDS011;31511;46.176;9.874;2022-12-08T00:47:05;12.27;;;6.43;;
40176;SDS011;31511;46.176;9.874;2022-12-08T00:49:31;9.73;;;6.30;;
40176;SDS011;31511;46.176;9.874;2022-12-08T00:51:57;11.87;;;6.23;;
40176;SDS011;31511;46.176;9.874;2022-12-08T00:54:24;11.03;;;7.57;;
40176;SDS011;31511;46.176;9.874;2022-12-08T00:56:52;9.60;;;6.23;;
40176;SDS011;31511;46.176;9.874;2022-12-08T00:59:18;11.60;;;7.23;;
40176;SDS011;31511;46.176;9.874;2022-12-08T01:01:46;10.50;;;6.13;;
40176;SDS011;31511;46.176;9.874;2022-12-08T01:04:13;14.07;;;6.70;;
40176;SDS011;31511;46.176;9.874;2022-12-08T01:06:40;9.30;;;5.83;;
40176;SDS011;31511;46.176;9.874;2022-12-08T01:09:06;10.27;;;6.20;;
40176;SDS011;31511;46.176;9.874;2022-12-08T01:11:34;10.70;;;6.33;;
40176;SDS011;31511;46.176;9.874;2022-12-08T01:14:00;8.83;;;6.27;;
40176;SDS011;31511;46.176;9.874;2022-12-08T01:16:29;8.20;;;5.43;;
40176;SDS011;31511;46.176;9.874;2022-12-08T01:18:56;10.80;;;7.03;;
40176;SDS011;31511;46.176;9.874;2022-12-08T01:21:23;7.43;;;5.30;;
40176;SDS011;31511;46.176;9.874;2022-12-08T01:23:51;8.47;;;5.70;;
40176;SDS011;31511;46.176;9.874;2022-12-08T01:26:17;8.77;;;5.30;;
40176;SDS011;31511;46.176;9.874;2022-12-08T01:28:45;7.73;;;5.43;;
40176;SDS011;31511;46.176;9.874;2022-12-08T01:31:13;8.47;;;5.83;;
40176;SDS011;31511;46.176;9.874;2022-12-08T01:33:40;9.87;;;5.30;;
40176;SDS011;31511;46.176;9.874;2022-12-08T01:36:06;6.83;;;4.90;;
40176;SDS011;31511;46.176;9.874;2022-12-08T01:38:33;7.33;;;5.37;;
40176;SDS011;31511;46.176;9.874;2022-12-08T01:40:59;9.50;;;5.60;;
40176;SDS011;31511;46.176;9.874;2022-12-08T01:46:11;10.63;;;6.10;;
40176;SDS011;31511;46.176;9.874;2022-12-08T01:48:37;9.30;;;5.60;;
40176;SDS011;31511;46.176;9.874;2022-12-08T01:51:03;9.10;;;4.37;;
40176;SDS011;31511;46.176;9.874;2022-12-08T01:53:31;10.60;;;6.10;;
40176;SDS011;31511;46.176;9.874;2022-12-08T01:56:07;13.47;;;8.13;;
40176;SDS011;31511;46.176;9.874;2022-12-08T01:58:40;10.30;;;6.47;;
40176;SDS011;31511;46.176;9.874;2022-12-08T02:01:08;7.63;;;5.30;;
40176;SDS011;31511;46.176;9.874;2022-12-08T02:03:45;11.80;;;7.10;;
40176;SDS011;31511;46.176;9.874;2022-12-08T02:06:13;10.67;;;6.40;;
40176;SDS011;31511;46.176;9.874;2022-12-08T02:08:40;10.57;;;5.40;;
40176;SDS011;31511;46.176;9.874;2022-12-08T02:11:10;6.97;;;4.40;;
40176;SDS011;31511;46.176;9.874;2022-12-08T02:13:37;6.77;;;4.77;;
40176;SDS011;31511;46.176;9.874;2022-12-08T02:26:22;7.57;;;5.30;;
40176;SDS011;31511;46.176;9.874;2022-12-08T02:31:36;12.27;;;5.97;;
40176;SDS011;31511;46.176;9.874;2022-12-08T02:36:56;14.13;;;5.10;;
40176;SDS011;31511;46.176;9.874;2022-12-08T02:39:34;8.43;;;6.00;;
40176;SDS011;31511;46.176;9.874;2022-12-08T02:42:11;7.93;;;5.23;;
40176;SDS011;31511;46.176;9.874;2022-12-08T02:44:51;10.00;;;5.27;;
40176;SDS011;31511;46.176;9.874;2022-12-08T02:47:22;8.73;;;5.87;;
40176;SDS011;31511;46.176;9.874;2022-12-08T02:49:53;10.10;;;5.77;;
40176;SDS011;31511;46.176;9.874;2022-12-08T02:54:55;10.83;;;6.53;;
40176;SDS011;31511;46.176;9.874;2022-12-08T02:57:34;10.70;;;6.15;;
40176;SDS011;31511;46.176;9.874;2022-12-08T03:02:34;7.27;;;4.60;;
40176;SDS011;31511;46.176;9.874;2022-12-08T03:10:17;6.03;;;2.50;;
40176;SDS011;31511;46.176;9.874;2022-12-08T03:12:47;12.60;;;5.77;;
40176;SDS011;31511;46.176;9.874;2022-12-08T03:15:15;6.77;;;4.30;;
40176;SDS011;31511;46.176;9.874;2022-12-08T03:17:44;6.80;;;3.53;;
40176;SDS011;31511;46.176;9.874;2022-12-08T03:20:12;9.73;;;4.33;;
40176;SDS011;31511;46.176;9.874;2022-12-08T03:22:40;7.10;;;4.97;;
40176;SDS011;31511;46.176;9.874;2022-12-08T03:25:07;7.17;;;5.00;;
40176;SDS011;31511;46.176;9.874;2022-12-08T03:27:35;9.23;;;6.07;;
40176;SDS011;31511;46.176;9.874;2022-12-08T03:30:01;6.90;;;4.43;;
40176;SDS011;31511;46.176;9.874;2022-12-08T03:32:36;5.47;;;4.00;;
40176;SDS011;31511;46.176;9.874;2022-12-08T03:35:07;8.37;;;4.57;;
40176;SDS011;31511;46.176;9.874;2022-12-08T03:37:35;7.63;;;5.13;;
40176;SDS011;31511;46.176;9.874;2022-12-08T03:40:02;7.60;;;5.03;;
40176;SDS011;31511;46.176;9.874;2022-12-08T03:42:30;9.57;;;5.13;;
40176;SDS011;31511;46.176;9.874;2022-12-08T03:44:56;7.20;;;4.73;;
40176;SDS011;31511;46.176;9.874;2022-12-08T03:47:23;5.70;;;3.93;;
40176;SDS011;31511;46.176;9.874;2022-12-08T03:49:51;7.63;;;4.60;;
40176;SDS011;31511;46.176;9.874;2022-12-08T03:52:17;7.00;;;4.77;;
40176;SDS011;31511;46.176;9.874;2022-12-08T03:54:43;9.87;;;5.33;;
40176;SDS011;31511;46.176;9.874;2022-12-08T03:57:09;6.57;;;4.40;;
40176;SDS011;31511;46.176;9.874;2022-12-08T03:59:36;5.80;;;2.60;;
40176;SDS011;31511;46.176;9.874;2022-12-08T04:02:02;5.53;;;3.10;;
40176;SDS011;31511;46.176;9.874;2022-12-08T04:04:28;4.50;;;2.73;;
40176;SDS011;31511;46.176;9.874;2022-12-08T04:06:54;5.90;;;3.00;;
40176;SDS011;31511;46.176;9.874;2022-12-08T04:09:21;3.97;;;2.50;;
40176;SDS011;31511;46.176;9.874;2022-12-08T04:11:49;5.80;;;3.43;;
40176;SDS011;31511;46.176;9.874;2022-12-08T04:14:15;8.87;;;4.30;;
40176;SDS011;31511;46.176;9.874;2022-12-08T04:16:42;7.27;;;4.07;;
40176;SDS011;31511;46.176;9.874;2022-12-08T04:19:08;10.87;;;4.80;;
40176;SDS011;31511;46.176;9.874;2022-12-08T04:21:35;4.67;;;2.90;;
40176;SDS011;31511;46.176;9.874;2022-12-08T04:24:01;4.93;;;2.47;;
40176;SDS011;31511;46.176;9.874;2022-12-08T04:26:28;3.47;;;2.27;;
40176;SDS011;31511;46.176;9.874;2022-12-08T04:28:55;3.80;;;2.17;;
40176;SDS011;31511;46.176;9.874;2022-12-08T04:31:22;4.33;;;3.00;;
40176;SDS011;31511;46.176;9.874;2022-12-08T04:33:50;4.57;;;3.47;;
40176;SDS011;31511;46.176;9.874;2022-12-08T04:36:16;7.50;;;4.13;;
40176;SDS011;31511;46.176;9.874;2022-12-08T04:38:43;4.13;;;2.93;;
40176;SDS011;31511;46.176;9.874;2022-12-08T04:41:09;4.93;;;3.40;;
40176;SDS011;31511;46.176;9.874;2022-12-08T04:43:36;8.20;;;3.43;;
40176;SDS011;31511;46.176;9.874;2022-12-08T04:46:04;5.43;;;3.10;;
40176;SDS011;31511;46.176;9.874;2022-12-08T04:48:32;5.57;;;3.67;;
40176;SDS011;31511;46.176;9.874;2022-12-08T04:50:58;6.40;;;3.20;;
40176;SDS011;31511;46.176;9.874;2022-12-08T04:53:25;8.57;;;4.93;;
40176;SDS011;31511;46.176;9.874;2022-12-08T04:55:53;5.33;;;2.80;;
40176;SDS011;31511;46.176;9.874;2022-12-08T04:58:20;5.03;;;2.87;;
40176;SDS011;31511;46.176;9.874;2022-12-08T05:00:48;6.47;;;2.57;;
40176;SDS011;31511;46.176;9.874;2022-12-08T05:03:15;3.43;;;2.70;;
40176;SDS011;31511;46.176;9.874;2022-12-08T05:05:41;3.80;;;3.10;;
40176;SDS011;31511;46.176;9.874;2022-12-08T05:08:09;5.63;;;3.73;;
40176;SDS011;31511;46.176;9.874;2022-12-08T05:10:36;5.23;;;3.33;;
40176;SDS011;31511;46.176;9.874;2022-12-08T05:13:02;5.27;;;3.57;;
40176;SDS011;31511;46.176;9.874;2022-12-08T05:15:30;5.07;;;3.33;;
40176;SDS011;31511;46.176;9.874;2022-12-08T05:17:56;5.20;;;3.50;;
40176;SDS011;31511;46.176;9.874;2022-12-08T05:20:23;10.07;;;3.47;;
40176;SDS011;31511;46.176;9.874;2022-12-08T05:22:51;9.80;;;2.97;;
40176;SDS011;31511;46.176;9.874;2022-12-08T05:25:18;6.37;;;3.23;;
40176;SDS011;31511;46.176;9.874;2022-12-08T05:27:45;5.10;;;3.90;;
40176;SDS011;31511;46.176;9.874;2022-12-08T05:30:12;8.23;;;4.50;;
40176;SDS011;31511;46.176;9.874;2022-12-08T05:32:38;7.20;;;4.07;;
40176;SDS011;31511;46.176;9.874;2022-12-08T05:35:04;5.73;;;3.87;;
40176;SDS011;31511;46.176;9.874;2022-12-08T05:37:30;5.90;;;3.03;;
40176;SDS011;31511;46.176;9.874;2022-12-08T05:39:56;4.20;;;2.37;;
40176;SDS011;31511;46.176;9.874;2022-12-08T05:42:24;4.03;;;2.53;;
40176;SDS011;31511;46.176;9.874;2022-12-08T05:44:52;6.53;;;2.93;;
40176;SDS011;31511;46.176;9.874;2022-12-08T05:47:18;5.23;;;3.40;;
40176;SDS011;31511;46.176;9.874;2022-12-08T05:49:46;5.87;;;2.83;;
40176;SDS011;31511;46.176;9.874;2022-12-08T05:52:12;3.27;;;2.00;;
40176;SDS011;31511;46.176;9.874;2022-12-08T05:54:40;4.23;;;3.00;;
40176;SDS011;31511;46.176;9.874;2022-12-08T05:57:06;4.57;;;2.73;;
40176;SDS011;31511;46.176;9.874;2022-12-08T05:59:33;5.43;;;3.60;;
40176;SDS011;31511;46.176;9.874;2022-12-08T06:01:59;5.40;;;2.83;;
40176;SDS011;31511;46.176;9.874;2022-12-08T06:04:27;5.97;;;3.27;;
40176;SDS011;31511;46.176;9.874;2022-12-08T06:06:55;4.97;;;3.37;;
40176;SDS011;31511;46.176;9.874;2022-12-08T06:09:22;5.40;;;2.47;;
40176;SDS011;31511;46.176;9.874;2022-12-08T06:11:50;3.33;;;2.00;;
40176;SDS011;31511;46.176;9.874;2022-12-08T06:14:16;3.97;;;2.33;;
40176;SDS011;31511;46.176;9.874;2022-12-08T06:16:42;3.67;;;2.13;;
40176;SDS011;31511;46.176;9.874;2022-12-08T06:19:08;3.87;;;2.63;;
40176;SDS011;31511;46.176;9.874;2022-12-08T06:21:35;4.90;;;3.10;;
40176;SDS011;31511;46.176;9.874;2022-12-08T06:24:01;4.37;;;2.80;;
40176;SDS011;31511;46.176;9.874;2022-12-08T06:26:29;6.27;;;3.90;;
40176;SDS011;31511;46.176;9.874;2022-12-08T06:28:56;4.63;;;2.40;;
40176;SDS011;31511;46.176;9.874;2022-12-08T06:31:26;5.23;;;3.30;;
40176;SDS011;31511;46.176;9.874;2022-12-08T06:33:54;6.80;;;3.80;;
40176;SDS011;31511;46.176;9.874;2022-12-08T06:36:22;4.90;;;3.13;;
40176;SDS011;31511;46.176;9.874;2022-12-08T06:38:50;5.67;;;3.60;;
40176;SDS011;31511;46.176;9.874;2022-12-08T06:41:17;5.47;;;3.27;;
40176;SDS011;31511;46.176;9.874;2022-12-08T06:43:43;6.60;;;3.87;;
40176;SDS011;31511;46.176;9.874;2022-12-08T06:46:11;7.10;;;3.47;;
40176;SDS011;31511;46.176;9.874;2022-12-08T06:48:38;6.10;;;3.57;;
40176;SDS011;31511;46.176;9.874;2022-12-08T06:51:08;3.87;;;3.13;;
40176;SDS011;31511;46.176;9.874;2022-12-08T06:53:36;6.63;;;3.23;;
40176;SDS011;31511;46.176;9.874;2022-12-08T06:56:02;4.13;;;2.70;;
40176;SDS011;31511;46.176;9.874;2022-12-08T06:58:30;4.30;;;3.27;;
40176;SDS011;31511;46.176;9.874;2022-12-08T07:00:56;5.70;;;2.73;;
40176;SDS011;31511;46.176;9.874;2022-12-08T07:03:23;4.63;;;2.80;;
40176;SDS011;31511;46.176;9.874;2022-12-08T07:05:54;5.77;;;2.67;;
40176;SDS011;31511;46.176;9.874;2022-12-08T07:08:21;5.70;;;2.97;;
40176;SDS011;31511;46.176;9.874;2022-12-08T07:10:49;5.67;;;2.90;;
40176;SDS011;31511;46.176;9.874;2022-12-08T07:13:15;4.10;;;2.33;;
40176;SDS011;31511;46.176;9.874;2022-12-08T07:15:42;4.77;;;3.17;;
40176;SDS011;31511;46.176;9.874;2022-12-08T07:18:08;6.73;;;3.50;;
40176;SDS011;31511;46.176;9.874;2022-12-08T07:20:35;3.20;;;2.50;;
40176;SDS011;31511;46.176;9.874;2022-12-08T07:23:01;5.60;;;2.67;;
40176;SDS011;31511;46.176;9.874;2022-12-08T07:25:29;5.40;;;2.90;;
40176;SDS011;31511;46.176;9.874;2022-12-08T07:27:55;5.57;;;2.97;;
40176;SDS011;31511;46.176;9.874;2022-12-08T07:30:21;4.83;;;3.30;;
40176;SDS011;31511;46.176;9.874;2022-12-08T07:32:47;5.43;;;3.47;;
40176;SDS011;31511;46.176;9.874;2022-12-08T07:35:13;7.33;;;2.57;;
40176;SDS011;31511;46.176;9.874;2022-12-08T07:37:41;4.17;;;2.40;;
40176;SDS011;31511;46.176;9.874;2022-12-08T07:40:07;3.37;;;2.53;;
40176;SDS011;31511;46.176;9.874;2022-12-08T07:42:34;7.53;;;3.87;;
40176;SDS011;31511;46.176;9.874;2022-12-08T07:45:00;9.53;;;4.47;;
40176;SDS011;31511;46.176;9.874;2022-12-08T07:47:28;5.47;;;4.23;;
40176;SDS011;31511;46.176;9.874;2022-12-08T07:49:55;5.53;;;4.43;;
40176;SDS011;31511;46.176;9.874;2022-12-08T07:52:22;4.97;;;3.07;;
40176;SDS011;31511;46.176;9.874;2022-12-08T07:54:50;8.07;;;4.17;;
40176;SDS011;31511;46.176;9.874;2022-12-08T07:57:16;8.00;;;4.20;;
40176;SDS011;31511;46.176;9.874;2022-12-08T07:59:42;16.67;;;5.30;;
40176;SDS011;31511;46.176;9.874;2022-12-08T08:02:14;9.93;;;5.80;;
40176;SDS011;31511;46.176;9.874;2022-12-08T08:04:41;8.10;;;4.93;;
40176;SDS011;31511;46.176;9.874;2022-12-08T08:07:08;5.30;;;3.73;;
40176;SDS011;31511;46.176;9.874;2022-12-08T08:09:34;5.10;;;3.37;;
40176;SDS011;31511;46.176;9.874;2022-12-08T08:12:00;3.40;;;2.50;;
40176;SDS011;31511;46.176;9.874;2022-12-08T08:14:28;5.07;;;3.10;;
40176;SDS011;31511;46.176;9.874;2022-12-08T08:16:55;4.37;;;2.90;;
40176;SDS011;31511;46.176;9.874;2022-12-08T08:19:22;6.53;;;2.60;;
40176;SDS011;31511;46.176;9.874;2022-12-08T08:21:50;5.00;;;2.77;;
40176;SDS011;31511;46.176;9.874;2022-12-08T08:24:16;6.43;;;3.43;;
40176;SDS011;31511;46.176;9.874;2022-12-08T08:26:42;7.87;;;4.50;;
40176;SDS011;31511;46.176;9.874;2022-12-08T08:29:08;6.10;;;3.03;;
40176;SDS011;31511;46.176;9.874;2022-12-08T08:31:35;6.80;;;3.80;;
40176;SDS011;31511;46.176;9.874;2022-12-08T08:34:01;6.37;;;3.90;;
40176;SDS011;31511;46.176;9.874;2022-12-08T08:36:30;6.60;;;4.90;;
40176;SDS011;31511;46.176;9.874;2022-12-08T08:38:56;7.03;;;4.67;;
40176;SDS011;31511;46.176;9.874;2022-12-08T08:41:23;6.57;;;5.45;;
40176;SDS011;31511;46.176;9.874;2022-12-08T08:43:52;7.95;;;5.53;;
40176;SDS011;31511;46.176;9.874;2022-12-08T08:46:19;15.23;;;8.82;;
40176;SDS011;31511;46.176;9.874;2022-12-08T08:48:47;16.83;;;10.73;;
40176;SDS011;31511;46.176;9.874;2022-12-08T08:51:13;9.05;;;6.57;;
40176;SDS011;31511;46.176;9.874;2022-12-08T08:53:40;6.32;;;5.05;;
40176;SDS011;31511;46.176;9.874;2022-12-08T08:56:08;9.10;;;7.53;;
40176;SDS011;31511;46.176;9.874;2022-12-08T08:58:35;17.80;;;13.20;;
40176;SDS011;31511;46.176;9.874;2022-12-08T09:01:01;9.70;;;6.43;;
40176;SDS011;31511;46.176;9.874;2022-12-08T09:03:29;10.48;;;8.15;;
40176;SDS011;31511;46.176;9.874;2022-12-08T09:05:55;10.38;;;8.15;;
40176;SDS011;31511;46.176;9.874;2022-12-08T09:08:22;10.15;;;6.85;;
40176;SDS011;31511;46.176;9.874;2022-12-08T09:10:50;8.90;;;6.90;;
40176;SDS011;31511;46.176;9.874;2022-12-08T09:13:16;12.50;;;7.25;;
40176;SDS011;31511;46.176;9.874;2022-12-08T09:15:42;11.05;;;7.97;;
40176;SDS011;31511;46.176;9.874;2022-12-08T09:18:09;12.95;;;8.50;;
40176;SDS011;31511;46.176;9.874;2022-12-08T09:20:36;13.32;;;11.15;;
40176;SDS011;31511;46.176;9.874;2022-12-08T09:23:02;19.00;;;12.32;;
40176;SDS011;31511;46.176;9.874;2022-12-08T09:25:28;15.57;;;12.32;;
40176;SDS011;31511;46.176;9.874;2022-12-08T09:27:54;17.17;;;11.13;;
40176;SDS011;31511;46.176;9.874;2022-12-08T09:30:21;14.70;;;11.60;;
40176;SDS011;31511;46.176;9.874;2022-12-08T09:32:47;15.52;;;13.77;;
40176;SDS011;31511;46.176;9.874;2022-12-08T09:35:13;16.98;;;12.35;;
40176;SDS011;31511;46.176;9.874;2022-12-08T09:37:40;15.02;;;12.52;;
40176;SDS011;31511;46.176;9.874;2022-12-08T09:40:06;17.13;;;13.55;;
40176;SDS011;31511;46.176;9.874;2022-12-08T09:42:54;15.95;;;11.35;;
40176;SDS011;31511;46.176;9.874;2022-12-08T09:45:25;15.88;;;11.77;;
40176;SDS011;31511;46.176;9.874;2022-12-08T09:48:13;14.63;;;10.38;;
40176;SDS011;31511;46.176;9.874;2022-12-08T09:50:54;13.38;;;10.80;;
40176;SDS011;31511;46.176;9.874;2022-12-08T09:53:26;12.07;;;9.48;;
40176;SDS011;31511;46.176;9.874;2022-12-08T10:01:09;13.82;;;8.45;;
40176;SDS011;31511;46.176;9.874;2022-12-08T10:03:40;12.93;;;9.93;;
40176;SDS011;31511;46.176;9.874;2022-12-08T10:06:10;16.45;;;12.70;;
40176;SDS011;31511;46.176;9.874;2022-12-08T10:11:30;14.20;;;11.88;;
40176;SDS011;31511;46.176;9.874;2022-12-08T10:16:33;15.52;;;10.65;;
40176;SDS011;31511;46.176;9.874;2022-12-08T10:19:12;13.60;;;9.85;;
40176;SDS011;31511;46.176;9.874;2022-12-08T10:21:41;12.52;;;9.63;;
40176;SDS011;31511;46.176;9.874;2022-12-08T10:26:52;9.35;;;8.32;;
40176;SDS011;31511;46.176;9.874;2022-12-08T10:29:19;9.95;;;7.90;;
40176;SDS011;31511;46.176;9.874;2022-12-08T10:31:47;9.32;;;8.32;;
40176;SDS011;31511;46.176;9.874;2022-12-08T10:36:48;10.50;;;7.32;;
40176;SDS011;31511;46.176;9.874;2022-12-08T10:39:32;12.63;;;10.07;;
40176;SDS011;31511;46.176;9.874;2022-12-08T10:44:54;10.82;;;8.15;;
40176;SDS011;31511;46.176;9.874;2022-12-08T10:47:25;9.05;;;6.53;;
40176;SDS011;31511;46.176;9.874;2022-12-08T10:50:07;13.52;;;9.27;;
40176;SDS011;31511;46.176;9.874;2022-12-08T10:52:38;9.50;;;6.72;;
40176;SDS011;31511;46.176;9.874;2022-12-08T10:55:18;9.57;;;7.13;;
40176;SDS011;31511;46.176;9.874;2022-12-08T10:57:46;13.45;;;8.38;;
40176;SDS011;31511;46.176;9.874;2022-12-08T11:00:19;12.63;;;7.43;;
40176;SDS011;31511;46.176;9.874;2022-12-08T11:02:49;13.40;;;9.40;;
40176;SDS011;31511;46.176;9.874;2022-12-08T11:05:16;10.10;;;7.53;;
40176;SDS011;31511;46.176;9.874;2022-12-08T11:07:51;8.98;;;7.28;;
40176;SDS011;31511;46.176;9.874;2022-12-08T11:10:18;12.20;;;8.02;;
40176;SDS011;31511;46.176;9.874;2022-12-08T11:12:47;11.38;;;7.90;;
40176;SDS011;31511;46.176;9.874;2022-12-08T11:15:15;8.23;;;5.97;;
40176;SDS011;31511;46.176;9.874;2022-12-08T11:17:42;11.35;;;6.10;;
40176;SDS011;31511;46.176;9.874;2022-12-08T11:22:41;8.15;;;5.00;;
40176;SDS011;31511;46.176;9.874;2022-12-08T11:25:09;9.25;;;6.15;;
40176;SDS011;31511;46.176;9.874;2022-12-08T11:27:36;7.40;;;5.68;;
40176;SDS011;31511;46.176;9.874;2022-12-08T11:30:05;7.72;;;5.93;;
40176;SDS011;31511;46.176;9.874;2022-12-08T11:32:37;9.48;;;5.25;;
40176;SDS011;31511;46.176;9.874;2022-12-08T11:35:05;8.07;;;6.40;;
40176;SDS011;31511;46.176;9.874;2022-12-08T11:37:39;10.38;;;6.22;;
40176;SDS011;31511;46.176;9.874;2022-12-08T11:40:09;7.03;;;5.10;;
40176;SDS011;31511;46.176;9.874;2022-12-08T11:45:25;6.13;;;5.25;;
40176;SDS011;31511;46.176;9.874;2022-12-08T11:48:00;5.73;;;4.17;;
40176;SDS011;31511;46.176;9.874;2022-12-08T11:50:39;5.28;;;3.38;;
40176;SDS011;31511;46.176;9.874;2022-12-08T11:53:12;5.00;;;4.05;;
40176;SDS011;31511;46.176;9.874;2022-12-08T11:55:44;5.68;;;4.35;;
40176;SDS011;31511;46.176;9.874;2022-12-08T11:58:19;5.70;;;4.38;;
40176;SDS011;31511;46.176;9.874;2022-12-08T12:00:47;7.32;;;4.45;;
40176;SDS011;31511;46.176;9.874;2022-12-08T12:03:17;6.55;;;4.97;;
40176;SDS011;31511;46.176;9.874;2022-12-08T12:13:21;6.43;;;5.18;;
40176;SDS011;31511;46.176;9.874;2022-12-08T12:18:37;9.75;;;6.13;;
40176;SDS011;31511;46.176;9.874;2022-12-08T12:21:18;8.32;;;6.00;;
40176;SDS011;31511;46.176;9.874;2022-12-08T12:23:52;9.45;;;6.43;;
40176;SDS011;31511;46.176;9.874;2022-12-08T12:28:50;9.38;;;6.57;;
40176;SDS011;31511;46.176;9.874;2022-12-08T12:31:18;12.38;;;8.10;;
40176;SDS011;31511;46.176;9.874;2022-12-08T12:33:48;9.88;;;6.75;;
40176;SDS011;31511;46.176;9.874;2022-12-08T12:36:16;11.07;;;7.85;;
40176;SDS011;31511;46.176;9.874;2022-12-08T12:38:46;13.10;;;8.35;;
40176;SDS011;31511;46.176;9.874;2022-12-08T12:41:28;10.02;;;7.55;;
40176;SDS011;31511;46.176;9.874;2022-12-08T12:44:06;8.63;;;6.93;;
40176;SDS011;31511;46.176;9.874;2022-12-08T12:49:51;7.13;;;5.57;;
40176;SDS011;31511;46.176;9.874;2022-12-08T12:51:54;5.07;;;3.78;;
40176;SDS011;31511;46.176;9.874;2022-12-08T13:01:55;4.70;;;2.38;;
40176;SDS011;31511;46.176;9.874;2022-12-08T13:04:29;2.78;;;1.75;;
40176;SDS011;31511;46.176;9.874;2022-12-08T13:06:55;2.75;;;1.92;;
40176;SDS011;31511;46.176;9.874;2022-12-08T13:09:32;2.85;;;2.55;;
40176;SDS011;31511;46.176;9.874;2022-12-08T13:12:00;7.38;;;4.05;;
40176;SDS011;31511;46.176;9.874;2022-12-08T13:14:35;5.05;;;3.03;;
40176;SDS011;31511;46.176;9.874;2022-12-08T13:17:03;5.60;;;3.13;;
40176;SDS011;31511;46.176;9.874;2022-12-08T13:19:31;3.88;;;2.53;;
40176;SDS011;31511;46.176;9.874;2022-12-08T13:21:58;3.72;;;2.70;;
40176;SDS011;31511;46.176;9.874;2022-12-08T13:24:32;3.83;;;2.70;;
40176;SDS011;31511;46.176;9.874;2022-12-08T13:29:31;3.40;;;2.53;;
40176;SDS011;31511;46.176;9.874;2022-12-08T13:31:58;3.50;;;2.88;;
40176;SDS011;31511;46.176;9.874;2022-12-08T13:42:03;3.17;;;1.98;;
40176;SDS011;31511;46.176;9.874;2022-12-08T13:44:42;3.30;;;2.10;;
40176;SDS011;31511;46.176;9.874;2022-12-08T13:47:12;2.90;;;1.90;;
40176;SDS011;31511;46.176;9.874;2022-12-08T13:49:41;3.55;;;2.22;;
40176;SDS011;31511;46.176;9.874;2022-12-08T13:52:52;6.13;;;2.58;;
40176;SDS011;31511;46.176;9.874;2022-12-08T13:54:58;4.90;;;3.33;;
40176;SDS011;31511;46.176;9.874;2022-12-08T13:57:30;4.40;;;3.17;;
40176;SDS011;31511;46.176;9.874;2022-12-08T14:00:04;4.10;;;2.35;;
40176;SDS011;31511;46.176;9.874;2022-12-08T14:02:35;3.72;;;3.28;;
40176;SDS011;31511;46.176;9.874;2022-12-08T14:05:02;2.90;;;2.20;;
40176;SDS011;31511;46.176;9.874;2022-12-08T14:07:30;3.72;;;2.38;;
40176;SDS011;31511;46.176;9.874;2022-12-08T14:09:57;3.17;;;2.22;;
40176;SDS011;31511;46.176;9.874;2022-12-08T14:12:26;4.97;;;2.25;;
40176;SDS011;31511;46.176;9.874;2022-12-08T14:15:04;3.80;;;2.25;;
40176;SDS011;31511;46.176;9.874;2022-12-08T14:17:31;3.60;;;2.67;;
40176;SDS011;31511;46.176;9.874;2022-12-08T14:19:59;4.47;;;3.17;;
40176;SDS011;31511;46.176;9.874;2022-12-08T14:22:32;3.60;;;2.30;;
40176;SDS011;31511;46.176;9.874;2022-12-08T14:24:58;18.42;;;8.57;;
40176;SDS011;31511;46.176;9.874;2022-12-08T14:27:26;8.02;;;5.10;;
40176;SDS011;31511;46.176;9.874;2022-12-08T14:29:59;8.13;;;4.68;;
40176;SDS011;31511;46.176;9.874;2022-12-08T14:32:27;7.07;;;4.30;;
40176;SDS011;31511;46.176;9.874;2022-12-08T14:40:00;8.23;;;3.58;;
40176;SDS011;31511;46.176;9.874;2022-12-08T14:42:27;10.02;;;5.63;;
40176;SDS011;31511;46.176;9.874;2022-12-08T14:44:58;10.85;;;5.78;;
40176;SDS011;31511;46.176;9.874;2022-12-08T14:47:30;10.32;;;6.55;;
40176;SDS011;31511;46.176;9.874;2022-12-08T14:49:56;11.30;;;6.50;;
40176;SDS011;31511;46.176;9.874;2022-12-08T14:52:24;9.43;;;5.63;;
40176;SDS011;31511;46.176;9.874;2022-12-08T14:54:52;10.38;;;5.60;;
40176;SDS011;31511;46.176;9.874;2022-12-08T14:57:19;11.18;;;6.75;;
40176;SDS011;31511;46.176;9.874;2022-12-08T14:59:47;11.68;;;7.78;;
40176;SDS011;31511;46.176;9.874;2022-12-08T15:04:47;12.75;;;8.85;;
40176;SDS011;31511;46.176;9.874;2022-12-08T15:07:16;14.30;;;8.95;;
40176;SDS011;31511;46.176;9.874;2022-12-08T15:09:43;7.93;;;5.63;;
40176;SDS011;31511;46.176;9.874;2022-12-08T15:12:21;9.77;;;6.80;;
40176;SDS011;31511;46.176;9.874;2022-12-08T15:22:31;12.77;;;7.55;;
40176;SDS011;31511;46.176;9.874;2022-12-08T15:24:58;10.25;;;6.40;;
40176;SDS011;31511;46.176;9.874;2022-12-08T15:27:26;10.73;;;5.50;;
40176;SDS011;31511;46.176;9.874;2022-12-08T15:29:55;15.27;;;10.20;;
40176;SDS011;31511;46.176;9.874;2022-12-08T15:32:22;22.60;;;8.95;;
40176;SDS011;31511;46.176;9.874;2022-12-08T15:34:50;16.42;;;8.95;;
40176;SDS011;31511;46.176;9.874;2022-12-08T15:37:21;15.25;;;8.65;;
40176;SDS011;31511;46.176;9.874;2022-12-08T15:39:49;13.18;;;9.55;;
40176;SDS011;31511;46.176;9.874;2022-12-08T15:42:15;13.65;;;8.63;;
40176;SDS011;31511;46.176;9.874;2022-12-08T15:44:42;11.50;;;8.75;;
40176;SDS011;31511;46.176;9.874;2022-12-08T15:47:12;15.63;;;9.98;;
40176;SDS011;31511;46.176;9.874;2022-12-08T15:49:40;11.82;;;7.72;;
40176;SDS011;31511;46.176;9.874;2022-12-08T15:52:12;10.02;;;7.03;;
40176;SDS011;31511;46.176;9.874;2022-12-08T15:54:40;12.43;;;6.80;;
40176;SDS011;31511;46.176;9.874;2022-12-08T15:57:15;8.68;;;6.53;;
40176;SDS011;31511;46.176;9.874;2022-12-08T15:59:42;8.43;;;5.43;;
40176;SDS011;31511;46.176;9.874;2022-12-08T16:02:10;6.70;;;5.13;;
40176;SDS011;31511;46.176;9.874;2022-12-08T16:04:37;10.00;;;5.22;;
40176;SDS011;31511;46.176;9.874;2022-12-08T16:07:04;15.88;;;10.25;;
40176;SDS011;31511;46.176;9.874;2022-12-08T16:09:38;19.25;;;10.05;;
40176;SDS011;31511;46.176;9.874;2022-12-08T16:12:05;16.85;;;10.98;;
40176;SDS011;31511;46.176;9.874;2022-12-08T16:14:50;17.52;;;10.45;;
40176;SDS011;31511;46.176;9.874;2022-12-08T16:17:17;17.63;;;10.57;;
40176;SDS011;31511;46.176;9.874;2022-12-08T16:19:43;18.05;;;9.75;;
40176;SDS011;31511;46.176;9.874;2022-12-08T16:22:17;16.25;;;10.80;;
40176;SDS011;31511;46.176;9.874;2022-12-08T16:24:44;27.92;;;17.33;;
40176;SDS011;31511;46.176;9.874;2022-12-08T16:27:44;22.63;;;14.10;;
40176;SDS011;31511;46.176;9.874;2022-12-08T16:30:05;15.68;;;10.85;;
40176;SDS011;31511;46.176;9.874;2022-12-08T16:32:31;21.20;;;13.75;;
40176;SDS011;31511;46.176;9.874;2022-12-08T16:34:57;22.65;;;13.38;;